Time;durP1;ratioP1;P1;durP2;ratioP2;P2;SDS_P1;SDS_P2;PMS_P1;PMS_P2;Temp;Humidity;BMP_temperature;BMP_pressure;BME280_temperature;BME280_humidity;BME280_pressure;Samples;Min_cycle;Max_cycle;Signal;HPM_P1;HPM_P2
2022/01/24 15:15:55;;;;;;;;;;;-4.40;99.90;;;;;;5051924;28;19925;-95
2022/01/24 15:24:12;;;;;;;;;;;-4.20;99.90;;;;;;5021191;28;20418;-93
2022/01/24 15:26:38;;;;;;;;;;;-4.10;99.90;;;;;;5040700;28;19940;-93
2022/01/24 15:29:03;;;;;;;;;;;-4.00;99.90;;;;;;5034140;28;19909;-94
2022/01/24 15:31:29;;;;;;;;;;;-3.90;99.90;;;;;;5034052;28;19913;-93
2022/01/24 15:33:56;;;;;;;;;;;-3.80;99.90;;;;;;5035136;28;19917;-96
2022/01/24 15:36:24;;;;;;;;;;;-3.80;99.90;;;;;;5034429;28;19909;-95
2022/01/24 15:38:51;;;;;;;;;;;-3.70;99.90;;;;;;5034492;28;19909;-93
2022/01/24 15:41:19;;;;;;;;;;;-3.70;99.90;;;;;;5051517;28;19909;-91
2022/01/24 15:44:02;;;;;;;;;;;-3.60;99.90;;;;;;5051663;28;19909;-93
2022/01/24 15:46:52;;;;;;;;;;;-3.60;99.90;;;;;;5033548;28;19920;-91
2022/01/24 15:49:17;;;;;;;;;;;-3.60;99.90;;;;;;5051395;28;20350;-91
2022/01/24 15:51:43;;;;;;;;;;;-3.50;99.90;;;;;;5033245;28;19936;-93
2022/01/24 15:54:13;;;;;;;;;;;-3.50;99.90;;;;;;5033229;28;19959;-92
2022/01/24 15:59:49;;;;;;;;;;;-3.50;99.90;;;;;;5050361;28;19931;-92
2022/01/24 16:02:14;;;;;;;;;;;-3.50;99.90;;;;;;5033281;28;19909;-93
2022/01/24 16:04:42;;;;;;;;;;;-3.50;99.90;;;;;;5033370;28;19913;-93
2022/01/24 16:07:08;;;;;;;;;;;-3.50;99.90;;;;;;5033409;28;20247;-92
2022/01/24 16:12:39;;;;;;;;;;;-3.40;99.90;;;;;;5050907;28;19955;-93
2022/01/24 16:26:43;;;;;;;;;;;-3.50;99.90;;;;;;5027741;28;19913;-92
2022/01/24 16:29:12;;;;;;;;;;;-3.40;99.90;;;;;;5021149;28;19909;-93
2022/01/24 16:31:38;;;;;;;;;;;-3.40;99.90;;;;;;5037387;28;19913;-95
2022/01/24 16:34:10;;;;;;;;;;;-3.50;99.90;;;;;;5023747;28;19932;-96
2022/01/24 16:37:23;;;;;;;;;;;-3.40;99.90;;;;;;5021465;28;20004;-95
2022/01/24 16:39:47;;;;;;;;;;;-3.50;99.90;;;;;;5009940;28;19991;-94
2022/01/24 16:42:20;;;;;;;;;;;-3.40;99.90;;;;;;5020331;28;19947;-95
2022/01/24 16:45:14;;;;;;;;;;;-3.50;99.90;;;;;;5009258;28;19925;-96
2022/01/24 16:47:39;;;;;;;;;;;-3.50;99.90;;;;;;5002073;28;19916;-94
2022/01/24 16:50:10;;;;;;;;;;;-3.50;99.90;;;;;;5014404;28;19917;-95
2022/01/24 16:52:45;;;;;;;;;;;-3.50;99.90;;;;;;5041862;28;19916;-96
2022/01/24 16:55:13;;;;;;;;;;;-3.50;99.90;;;;;;5010915;28;19919;-94
2022/01/24 16:57:41;;;;;;;;;;;-3.50;99.90;;;;;;5008626;28;19937;-92
2022/01/24 17:00:07;;;;;;;;;;;-3.50;99.90;;;;;;5026706;28;19962;-90
2022/01/24 17:02:32;;;;;;;;;;;-3.50;99.90;;;;;;5031953;28;20011;-92
2022/01/24 17:05:01;;;;;;;;;;;-3.50;99.90;;;;;;5032186;28;20011;-94
2022/01/24 17:07:27;;;;;;;;;;;-3.50;99.90;;;;;;5010936;28;19910;-95
2022/01/24 17:09:53;;;;;;;;;;;-3.50;99.90;;;;;;5010232;28;19916;-96
2022/01/24 17:12:26;;;;;;;;;;;-3.50;99.90;;;;;;5008643;28;19913;-96
2022/01/24 17:14:54;;;;;;;;;;;-3.50;99.90;;;;;;5015184;28;19926;-91
2022/01/24 17:17:19;;;;;;;;;;;-3.50;99.90;;;;;;5023255;28;20409;-90
2022/01/24 17:20:13;;;;;;;;;;;-3.50;99.90;;;;;;5003224;28;20001;-95
2022/01/24 17:25:33;;;;;;;;;;;-3.50;99.90;;;;;;5308002;23;19926;-95
2022/01/24 17:28:02;;;;;;;;;;;-3.60;99.90;;;;;;5016272;28;19917;-94
2022/01/24 17:33:35;;;;;;;;;;;-3.60;99.90;;;;;;4942713;29;19963;-96
2022/01/24 17:36:43;;;;;;;;;;;-3.60;99.90;;;;;;4953032;29;19914;-96
2022/01/24 17:39:09;;;;;;;;;;;-3.60;99.90;;;;;;5011493;22;19933;-94
2022/01/24 17:41:34;;;;;;;;;;;-3.70;99.90;;;;;;4999995;28;20015;-95
2022/01/24 17:44:00;;;;;;;;;;;-3.70;99.90;;;;;;4998319;28;20306;-93
2022/01/24 17:46:26;;;;;;;;;;;-3.70;99.90;;;;;;4991930;28;19956;-92
2022/01/24 17:48:52;;;;;;;;;;;-3.80;99.90;;;;;;4989908;28;19914;-93
2022/01/24 17:51:18;;;;;;;;;;;-3.80;99.90;;;;;;4994320;28;19956;-90
2022/01/24 17:53:44;;;;;;;;;;;-3.80;99.90;;;;;;4991089;28;19918;-89
2022/01/24 17:59:03;;;;;;;;;;;-3.80;99.90;;;;;;4998003;28;20339;-89
2022/01/24 18:01:28;;;;;;;;;;;-3.90;99.90;;;;;;4994265;28;19921;-91
2022/01/24 18:03:54;;;;;;;;;;;-3.90;99.90;;;;;;4974939;28;20366;-91
2022/01/24 18:06:21;;;;;;;;;;;-3.90;99.90;;;;;;4975765;28;19914;-89
2022/01/24 18:08:46;;;;;;;;;;;-3.90;99.90;;;;;;4979121;28;20327;-91
2022/01/24 18:11:12;;;;;;;;;;;-3.90;99.90;;;;;;4974558;28;19941;-90
2022/01/24 18:13:39;;;;;;;;;;;-3.90;99.90;;;;;;4972693;28;19921;-92
2022/01/24 18:16:07;;;;;;;;;;;-4.00;99.90;;;;;;5008043;28;19917;-94
2022/01/24 18:18:34;;;;;;;;;;;-4.00;99.90;;;;;;4976105;28;19914;-92
2022/01/24 18:21:00;;;;;;;;;;;-4.00;99.90;;;;;;4991769;28;19914;-92
2022/01/24 18:23:25;;;;;;;;;;;-4.00;99.90;;;;;;4977853;28;19922;-91
2022/01/24 18:25:53;;;;;;;;;;;-4.00;99.90;;;;;;4994919;28;19965;-91
2022/01/24 18:28:19;;;;;;;;;;;-4.00;99.90;;;;;;4975165;28;19914;-90
2022/01/24 18:30:44;;;;;;;;;;;-4.00;99.90;;;;;;4977172;28;19917;-89
2022/01/24 18:33:11;;;;;;;;;;;-4.00;99.90;;;;;;4984128;28;19920;-95
2022/01/24 18:35:37;;;;;;;;;;;-4.00;99.90;;;;;;4981764;28;19957;-94
2022/01/24 18:38:05;;;;;;;;;;;-4.10;99.90;;;;;;4988300;28;20001;-95
2022/01/24 18:40:30;;;;;;;;;;;-4.10;99.90;;;;;;4987135;28;19949;-94
2022/01/24 18:42:56;;;;;;;;;;;-4.10;99.90;;;;;;4987190;28;19910;-96
2022/01/24 18:47:57;;;;;;;;;;;-4.10;99.90;;;;;;5139785;23;19930;-94
2022/01/24 18:50:25;;;;;;;;;;;-4.10;99.90;;;;;;5011881;28;20373;-95
2022/01/24 18:53:06;;;;;;;;;;;-4.10;99.90;;;;;;5006783;28;19957;-92
2022/01/24 18:55:32;;;;;;;;;;;-4.10;99.90;;;;;;5028730;28;19945;-94
2022/01/24 18:57:58;;;;;;;;;;;-4.10;99.90;;;;;;5009008;28;19940;-94
2022/01/24 19:00:24;;;;;;;;;;;-4.20;99.90;;;;;;5022302;28;19916;-96
2022/01/24 19:02:53;;;;;;;;;;;-4.20;99.90;;;;;;5011078;28;19980;-96
2022/01/24 19:05:24;;;;;;;;;;;-4.20;99.90;;;;;;5220626;23;19972;-91
2022/01/24 19:07:51;;;;;;;;;;;-4.20;99.90;;;;;;4984818;28;19913;-92
2022/01/24 19:10:18;;;;;;;;;;;-4.20;99.90;;;;;;4991789;28;19968;-92
2022/01/24 19:12:45;;;;;;;;;;;-4.20;99.90;;;;;;4997317;28;19918;-92
2022/01/24 19:15:14;;;;;;;;;;;-4.20;99.90;;;;;;4990777;28;20363;-92
2022/01/24 19:17:40;;;;;;;;;;;-4.20;99.90;;;;;;5080879;23;19930;-96
2022/01/24 19:25:25;;;;;;;;;;;-4.20;99.90;;;;;;4995061;28;19925;-93
2022/01/24 19:27:50;;;;;;;;;;;-4.20;99.90;;;;;;4988567;28;20056;-95
2022/01/24 19:30:18;;;;;;;;;;;-4.20;99.90;;;;;;5012460;28;19893;-96
2022/01/24 19:40:58;;;;;;;;;;;-4.10;99.90;;;;;;5054101;22;19925;-94
2022/01/24 19:43:24;;;;;;;;;;;-4.20;99.90;;;;;;4994356;28;19910;-93
2022/01/24 19:45:49;;;;;;;;;;;-4.20;99.90;;;;;;4977114;28;19910;-95
2022/01/24 19:48:16;;;;;;;;;;;-4.20;99.90;;;;;;4976947;28;20363;-95
